Time;durP1;ratioP1;P1;durP2;ratioP2;P2;SDS_P1;SDS_P2;PMS_P1;PMS_P2;Temp;Humidity;BMP_temperature;BMP_pressure;BME280_temperature;BME280_humidity;BME280_pressure;Samples;Min_cycle;Max_cycle;Signal;HPM_P1;HPM_P2
2021/09/08 00:00:51;;;;;;;7.10;2.95;;;;;;;12.56;69.89;100414.31;5037795;28;20439;-76
2021/09/08 00:03:17;;;;;;;6.50;2.83;;;;;;;12.48;69.43;100413.50;5038020;28;20558;-75
2021/09/08 00:05:43;;;;;;;7.80;3.30;;;;;;;12.54;69.79;100425.66;5040176;28;20523;-76
2021/09/08 00:08:09;;;;;;;8.20;3.50;;;;;;;12.52;69.54;100417.81;5040111;28;20039;-77
2021/09/08 00:10:35;;;;;;;9.20;3.50;;;;;;;12.60;69.60;100428.22;5040505;28;20407;-77
2021/09/08 00:13:00;;;;;;;8.45;3.50;;;;;;;12.60;69.43;100433.44;5020958;28;20177;-77
2021/09/08 00:15:26;;;;;;;8.40;3.67;;;;;;;12.48;69.52;100408.28;5020481;28;20056;-76
2021/09/08 00:17:52;;;;;;;10.30;4.18;;;;;;;12.54;69.50;100426.50;5020945;28;21699;-77
2021/09/08 00:20:18;;;;;;;11.35;4.22;;;;;;;12.50;69.53;100414.34;5040124;28;20083;-76
2021/09/08 00:22:45;;;;;;;10.98;3.78;;;;;;;12.54;69.29;100417.84;5040207;28;20044;-76
2021/09/08 00:25:12;;;;;;;11.20;4.28;;;;;;;12.48;69.28;100413.50;5038235;28;20041;-77
2021/09/08 00:27:38;;;;;;;13.02;4.40;;;;;;;12.56;69.30;100431.75;5003750;28;20544;-77
2021/09/08 00:30:11;;;;;;;10.13;4.05;;;;;;;12.50;69.28;100422.19;5021196;28;20068;-76
2021/09/08 00:32:38;;;;;;;13.95;4.18;;;;;;;12.56;69.35;100424.75;5009715;28;20477;-76
2021/09/08 00:35:05;;;;;;;14.43;5.32;;;;;;;12.54;69.42;100429.13;5022282;28;20047;-76
2021/09/08 00:37:31;;;;;;;14.40;5.78;;;;;;;12.40;69.34;100403.13;5041422;28;20051;-75
2021/09/08 00:39:57;;;;;;;13.77;5.38;;;;;;;12.49;69.22;100421.34;5021198;28;20451;-76
2021/09/08 00:42:23;;;;;;;12.98;5.07;;;;;;;12.49;69.39;100413.50;5037431;28;20068;-77
2021/09/08 00:44:49;;;;;;;11.27;4.35;;;;;;;12.48;69.52;100413.50;5021399;28;20482;-77
2021/09/08 00:47:16;;;;;;;12.48;4.75;;;;;;;12.52;69.37;100419.59;5038150;28;20048;-76
2021/09/08 00:49:46;;;;;;;12.45;4.43;;;;;;;12.43;69.27;100404.84;5038487;28;20057;-76
2021/09/08 00:52:15;;;;;;;8.30;3.80;;;;;;;12.51;69.21;100416.09;5039926;28;20040;-76
2021/09/08 00:54:46;;;;;;;10.70;3.70;;;;;;;12.42;69.25;100403.13;5037127;28;20067;-75
2021/09/08 00:57:14;;;;;;;7.30;3.33;;;;;;;12.45;69.00;100401.34;5022896;28;20132;-76
2021/09/08 00:59:45;;;;;;;9.13;4.00;;;;;;;12.40;69.08;100392.69;5019825;28;20575;-76
2021/09/08 01:02:12;;;;;;;9.98;3.75;;;;;;;12.54;68.91;100415.22;5010549;28;20601;-77
2021/09/08 01:04:38;;;;;;;7.05;3.33;;;;;;;12.49;68.71;100413.50;5026517;28;20041;-77
2021/09/08 01:07:07;;;;;;;6.10;2.67;;;;;;;12.46;68.70;100402.22;5015524;28;20056;-76
2021/09/08 01:09:34;;;;;;;6.32;3.15;;;;;;;12.34;68.92;100388.38;5002463;28;20052;-76
2021/09/08 01:12:03;;;;;;;8.40;2.70;;;;;;;12.37;68.81;100394.44;5019606;28;20048;-77
2021/09/08 01:14:29;;;;;;;6.43;2.63;;;;;;;12.26;68.89;100379.72;5019353;28;20505;-76
2021/09/08 01:16:57;;;;;;;7.10;2.63;;;;;;;12.33;68.84;100410.13;5021936;28;20146;-76
2021/09/08 01:19:23;;;;;;;6.32;2.70;;;;;;;12.35;68.87;100418.81;5006742;28;20041;-77
2021/09/08 01:21:49;;;;;;;5.47;2.58;;;;;;;12.24;68.92;100397.16;5005477;28;20045;-78
2021/09/08 01:24:16;;;;;;;8.57;2.88;;;;;;;12.25;68.96;100406.69;5023173;28;20049;-76
2021/09/08 01:26:43;;;;;;;6.57;2.20;;;;;;;12.18;68.73;100405.00;5023725;28;20097;-76
2021/09/08 01:29:10;;;;;;;7.20;2.38;;;;;;;12.14;68.87;100404.13;5021397;28;20045;-76
2021/09/08 01:31:36;;;;;;;6.93;2.63;;;;;;;12.02;69.10;100385.97;5038476;28;20040;-76
2021/09/08 01:34:05;;;;;;;8.32;2.60;;;;;;;11.95;69.25;100373.78;5036317;28;20149;-76
2021/09/08 01:36:39;;;;;;;6.00;1.95;;;;;;;12.05;69.11;100397.22;5021560;28;20056;-77
2021/09/08 01:39:05;;;;;;;7.07;2.33;;;;;;;12.01;69.15;100398.16;5003533;28;20044;-77
2021/09/08 01:41:31;;;;;;;7.88;2.40;;;;;;;11.87;69.50;100390.34;5039731;28;20117;-76
2021/09/08 01:43:56;;;;;;;6.55;2.17;;;;;;;12.03;69.38;100427.66;5040316;28;20086;-77
2021/09/08 01:46:23;;;;;;;5.20;2.30;;;;;;;11.89;69.40;100405.97;5040674;28;20052;-79
2021/09/08 01:48:50;;;;;;;7.47;2.10;;;;;;;11.98;69.80;100415.50;5008305;28;20455;-76
2021/09/08 01:51:16;;;;;;;4.85;2.35;;;;;;;11.94;69.69;100413.78;5037394;28;21407;-75
2021/09/08 01:53:42;;;;;;;7.00;2.35;;;;;;;11.96;69.88;100422.47;5022062;28;20709;-76
2021/09/08 01:56:09;;;;;;;4.15;2.08;;;;;;;11.92;69.83;100415.56;5039689;28;20037;-77
2021/09/08 01:58:35;;;;;;;5.13;2.05;;;;;;;11.87;69.73;100418.16;5044806;28;20051;-78
2021/09/08 02:01:02;;;;;;;7.53;3.10;;;;;;;11.83;69.82;100408.59;5046347;28;20433;-78
2021/09/08 02:03:28;;;;;;;6.00;2.50;;;;;;;11.70;69.65;100390.44;5026813;28;20074;-77
2021/09/08 02:05:55;;;;;;;7.78;2.20;;;;;;;11.83;69.98;100421.66;5019341;28;20649;-77
2021/09/08 02:08:21;;;;;;;7.03;1.90;;;;;;;11.82;70.12;100419.91;5019116;28;20049;-77
2021/09/08 02:10:47;;;;;;;4.88;2.15;;;;;;;11.75;70.19;100403.44;5002672;28;20512;-77
2021/09/08 02:13:13;;;;;;;5.03;2.10;;;;;;;11.77;70.22;100403.44;5007982;28;20408;-78
2021/09/08 02:15:39;;;;;;;2.72;1.80;;;;;;;11.70;70.14;100406.06;5040033;28;20040;-78
2021/09/08 02:18:06;;;;;;;6.43;2.30;;;;;;;11.76;70.42;100418.19;5018589;28;20542;-76
2021/09/08 02:20:31;;;;;;;4.35;2.22;;;;;;;11.65;70.44;100402.59;5037695;28;20538;-78
2021/09/08 02:22:57;;;;;;;5.90;2.20;;;;;;;11.70;70.47;100406.06;5019987;28;20361;-77
2021/09/08 02:25:23;;;;;;;4.68;2.17;;;;;;;11.57;70.62;100383.53;5037092;28;20048;-79
2021/09/08 02:27:50;;;;;;;4.60;2.38;;;;;;;11.73;70.61;100420.81;5013818;28;20041;-79
2021/09/08 02:30:16;;;;;;;4.70;2.17;;;;;;;11.63;70.67;100391.31;5044282;28;20068;-78
2021/09/08 02:32:42;;;;;;;3.88;2.38;;;;;;;11.64;70.22;100397.41;5000498;28;20072;-76
2021/09/08 02:35:09;;;;;;;7.10;2.35;;;;;;;11.70;70.81;100411.28;5017969;28;20072;-77
2021/09/08 02:37:34;;;;;;;8.45;2.55;;;;;;;11.68;70.74;100412.16;5019389;28;20109;-76
2021/09/08 02:40:00;;;;;;;7.32;2.63;;;;;;;11.59;70.90;100393.06;5021561;28;20041;-75
2021/09/08 02:42:26;;;;;;;6.10;2.40;;;;;;;11.63;70.83;100403.50;5002672;28;20079;-78
2021/09/08 02:44:52;;;;;;;6.97;2.58;;;;;;;11.60;70.67;100391.31;5037551;28;20126;-75
2021/09/08 02:47:17;;;;;;;6.07;2.60;;;;;;;11.63;71.01;100393.91;5018548;28;20032;-75
2021/09/08 02:49:43;;;;;;;6.88;2.65;;;;;;;11.67;71.11;100400.00;5018055;28;20142;-78
2021/09/08 02:52:09;;;;;;;8.35;2.28;;;;;;;11.52;70.67;100380.06;5003021;28;20045;-75
2021/09/08 02:54:36;;;;;;;7.13;1.98;;;;;;;11.59;70.72;100381.75;5040817;28;20064;-76
2021/09/08 02:57:02;;;;;;;6.90;2.10;;;;;;;11.57;70.83;100378.31;5043401;28;20053;-76
2021/09/08 02:59:28;;;;;;;5.57;2.50;;;;;;;11.59;70.76;100387.88;5013245;28;20387;-78
2021/09/08 03:01:54;;;;;;;6.80;2.30;;;;;;;11.61;71.06;100385.22;5031946;28;20049;-78
2021/09/08 03:04:20;;;;;;;4.90;2.03;;;;;;;11.59;70.91;100392.19;5023299;28;20063;-76
2021/09/08 03:06:48;;;;;;;6.90;2.15;;;;;;;11.62;71.00;100400.00;5028688;28;20037;-77
2021/09/08 03:09:14;;;;;;;3.00;2.05;;;;;;;11.61;71.23;100393.06;5041256;28;20507;-78
2021/09/08 03:11:41;;;;;;;5.35;2.40;;;;;;;11.25;71.32;100341.09;5025971;28;20048;-78
2021/09/08 03:14:07;;;;;;;5.07;2.42;;;;;;;11.32;71.27;100344.53;5008438;28;20099;-78
2021/09/08 03:16:32;;;;;;;3.05;2.00;;;;;;;11.44;71.09;100367.94;5044837;28;20540;-79
2021/09/08 03:18:58;;;;;;;4.75;2.17;;;;;;;11.27;71.18;100348.88;5029716;28;20045;-78
2021/09/08 03:21:24;;;;;;;6.63;2.30;;;;;;;11.51;71.22;100376.59;5023839;28;20041;-78
2021/09/08 03:23:49;;;;;;;3.85;2.25;;;;;;;11.53;71.13;100382.66;5025663;28;20037;-79
2021/09/08 03:26:15;;;;;;;5.10;2.28;;;;;;;11.49;71.44;100380.94;5043409;28;20049;-80
2021/09/08 03:28:41;;;;;;;4.32;2.13;;;;;;;11.45;71.38;100374.88;5042919;28;20033;-77
2021/09/08 03:31:07;;;;;;;8.73;2.78;;;;;;;11.50;71.38;100389.63;5026492;28;20044;-77
2021/09/08 03:33:32;;;;;;;6.22;2.58;;;;;;;11.45;71.57;100371.41;5024353;28;20045;-78
2021/09/08 03:35:58;;;;;;;15.88;2.50;;;;;;;11.58;71.68;100387.88;5024769;28;20041;-78
2021/09/08 03:38:24;;;;;;;5.95;2.65;;;;;;;11.59;71.33;100389.59;5042287;28;20046;-78
2021/09/08 03:40:49;;;;;;;9.77;2.50;;;;;;;11.50;71.33;100376.59;4996761;28;20385;-79
2021/09/08 03:43:15;;;;;;;7.72;2.55;;;;;;;11.57;71.32;100383.53;5033269;28;20055;-78
2021/09/08 03:45:41;;;;;;;5.93;2.72;;;;;;;11.48;71.42;100371.38;5025874;28;20882;-77
2021/09/08 03:48:06;;;;;;;4.55;2.40;;;;;;;11.56;71.25;100381.81;5026775;28;20029;-77
2021/09/08 03:50:32;;;;;;;4.43;2.58;;;;;;;11.48;71.79;100370.53;5029889;28;20055;-77
2021/09/08 03:52:58;;;;;;;6.05;2.58;;;;;;;11.48;71.60;100365.31;5043617;28;20056;-79
2021/09/08 03:55:24;;;;;;;6.15;2.88;;;;;;;11.57;71.62;100371.34;5029538;28;20045;-78
2021/09/08 03:57:50;;;;;;;4.63;2.20;;;;;;;11.19;71.84;100316.75;5009295;28;20408;-78
2021/09/08 04:00:16;;;;;;;8.25;2.33;;;;;;;11.60;71.46;100384.38;5025096;28;20075;-77
2021/09/08 04:02:42;;;;;;;3.83;2.40;;;;;;;11.54;71.54;100373.97;5042328;28;20041;-77
2021/09/08 04:05:11;;;;;;;4.45;2.50;;;;;;;11.49;71.67;100364.44;5039404;28;20037;-78
2021/09/08 04:07:36;;;;;;;5.50;2.58;;;;;;;11.51;71.87;100370.53;5025580;28;20029;-77
2021/09/08 04:10:02;;;;;;;5.65;2.00;;;;;;;11.66;71.81;100382.63;5023073;28;20528;-76
2021/09/08 04:12:28;;;;;;;9.77;2.30;;;;;;;11.47;71.39;100353.16;4992013;28;20049;-78
2021/09/08 04:14:58;;;;;;;8.63;2.55;;;;;;;11.51;71.43;100360.09;5037560;28;20041;-77
2021/09/08 04:17:24;;;;;;;4.25;2.28;;;;;;;11.57;71.38;100363.53;5023466;28;20613;-80
2021/09/08 04:19:50;;;;;;;8.52;2.58;;;;;;;11.17;71.11;100292.47;5006068;28;20048;-76
2021/09/08 04:22:16;;;;;;;6.03;2.50;;;;;;;11.55;71.61;100354.84;5023803;28;21109;-77
2021/09/08 04:24:42;;;;;;;4.15;2.30;;;;;;;11.63;71.63;100373.06;5042631;28;20052;-75
2021/09/08 04:27:08;;;;;;;4.50;2.22;;;;;;;11.74;71.37;100373.03;5023992;28;20040;-78
2021/09/08 04:29:34;;;;;;;5.43;2.50;;;;;;;11.88;71.38;100384.28;5041051;28;20488;-77
2021/09/08 04:32:00;;;;;;;3.78;2.30;;;;;;;11.79;71.31;100362.59;5023941;28;20045;-78
2021/09/08 04:34:26;;;;;;;5.85;2.65;;;;;;;11.85;70.91;100365.16;5024588;28;20040;-77
2021/09/08 04:36:52;;;;;;;5.50;2.20;;;;;;;12.04;70.91;100382.47;5030238;28;20111;-77
2021/09/08 04:39:17;;;;;;;7.90;1.98;;;;;;;12.05;70.72;100381.59;5040084;28;20459;-79
2021/09/08 04:41:43;;;;;;;4.57;2.30;;;;;;;12.14;70.84;100374.59;5023042;28;20060;-77
2021/09/08 04:44:08;;;;;;;4.13;2.25;;;;;;;12.37;70.81;100390.06;5026389;28;20056;-78
2021/09/08 04:46:34;;;;;;;5.45;2.35;;;;;;;12.49;70.30;100376.97;5008683;28;20121;-79
2021/09/08 04:49:00;;;;;;;4.90;2.20;;;;;;;12.59;70.09;100388.19;5041221;28;20102;-78
2021/09/08 04:51:26;;;;;;;6.68;2.22;;;;;;;12.60;70.19;100362.94;5040438;28;20049;-79
2021/09/08 04:53:51;;;;;;;4.20;2.20;;;;;;;12.43;69.63;100330.03;5042309;28;20909;-77
2021/09/08 04:56:17;;;;;;;5.03;2.60;;;;;;;12.69;69.61;100367.25;5039962;28;20056;-78
2021/09/08 04:58:43;;;;;;;3.80;2.17;;;;;;;12.73;69.11;100366.31;5039758;28;20497;-78
2021/09/08 05:01:08;;;;;;;6.53;2.05;;;;;;;12.56;69.04;100346.44;5022201;28;20132;-78
2021/09/08 05:03:34;;;;;;;10.45;2.50;;;;;;;12.83;69.03;100375.81;5022702;28;20041;-78
2021/09/08 05:06:00;;;;;;;6.38;2.20;;;;;;;12.80;68.87;100362.78;5025099;28;20126;-78
2021/09/08 05:08:27;;;;;;;5.15;2.50;;;;;;;12.86;68.31;100361.84;5041661;28;20033;-77
2021/09/08 05:10:53;;;;;;;5.03;2.25;;;;;;;12.91;68.67;100370.50;5038676;28;20045;-77
2021/09/08 05:13:19;;;;;;;5.80;1.90;;;;;;;13.00;68.28;100375.66;5021723;28;20065;-79
2021/09/08 05:15:45;;;;;;;4.75;2.13;;;;;;;12.93;68.32;100356.56;5020738;28;20420;-77
2021/09/08 05:18:11;;;;;;;4.40;2.22;;;;;;;13.13;67.82;100375.53;5011488;28;20033;-79
2021/09/08 05:20:37;;;;;;;3.42;1.95;;;;;;;13.15;67.93;100368.53;5022797;28;20100;-77
2021/09/08 05:23:03;;;;;;;5.53;2.38;;;;;;;13.25;67.80;100368.44;5004757;28;20064;-79
2021/09/08 05:25:29;;;;;;;11.00;2.40;;;;;;;13.24;67.46;100358.84;5006683;28;20047;-76
2021/09/08 05:27:54;;;;;;;3.35;1.95;;;;;;;13.38;67.13;100352.59;5005259;28;20037;-78
2021/09/08 05:30:20;;;;;;;4.68;2.38;;;;;;;13.47;66.89;100349.03;5043117;28;21740;-77
2021/09/08 05:32:46;;;;;;;4.00;1.80;;;;;;;13.53;66.75;100362.91;5045860;28;20131;-78
2021/09/08 05:35:15;;;;;;;3.92;1.92;;;;;;;13.36;66.25;100323.88;4996229;28;20045;-79
2021/09/08 05:38:04;;;;;;;5.20;2.30;;;;;;;13.63;66.22;100357.56;5008185;28;20546;-79
2021/09/08 05:40:54;;;;;;;4.00;1.85;;;;;;;13.29;66.03;100263.88;5036539;28;20107;-76
2021/09/08 05:43:23;;;;;;;4.50;2.10;;;;;;;13.90;66.07;100313.63;5024371;28;20084;-77
2021/09/08 05:45:55;;;;;;;;;;;;;;;14.66;65.23;100355.19;5035829;28;20048;-78
2021/09/08 05:48:21;;;;;;;6.78;1.95;;;;;;;14.49;64.66;100270.81;5035136;28;19921;-77
2021/09/08 05:50:50;;;;;;;3.75;1.80;;;;;;;14.37;63.81;100220.41;5026638;28;20044;-78
2021/09/08 05:53:18;;;;;;;3.78;2.00;;;;;;;15.56;63.28;100355.31;5020828;28;20187;-77
2021/09/08 05:55:55;;;;;;;5.53;1.90;;;;;;;15.69;62.67;100277.22;5009000;28;20041;-79
2021/09/08 05:58:24;;;;;;;6.97;1.88;;;;;;;16.37;60.98;100278.25;5020838;28;20563;-78
2021/09/08 06:00:51;;;;;;;6.10;2.00;;;;;;;17.24;60.55;100347.81;5041441;28;20068;-77
2021/09/08 06:03:17;;;;;;;5.07;3.35;;;;;;;17.08;58.90;100270.28;5008067;28;20052;-79
2021/09/08 06:05:43;;;;;;;5.75;2.00;;;;;;;17.55;57.54;100296.97;5016451;28;20045;-77
2021/09/08 06:08:10;;;;;;;5.00;1.90;;;;;;;18.27;57.08;100337.75;5038510;28;20041;-78
2021/09/08 06:10:36;;;;;;;2.47;1.85;;;;;;;18.25;55.71;100322.94;5023014;28;20043;-80
2021/09/08 06:13:32;;;;;;;3.88;1.90;;;;;;;17.31;54.90;100212.63;5021998;28;20048;-77
2021/09/08 06:16:01;;;;;;;7.13;2.20;;;;;;;17.82;54.47;100330.38;5019704;28;20049;-78
2021/09/08 06:18:27;;;;;;;4.25;2.00;;;;;;;17.08;54.56;100205.44;5005854;28;20056;-80
2021/09/08 06:21:08;;;;;;;4.25;2.10;;;;;;;17.83;53.64;100306.66;5007018;28;20400;-78
2021/09/08 06:23:47;;;;;;;4.55;1.70;;;;;;;17.74;53.67;100278.84;5039717;28;20052;-79
2021/09/08 06:26:45;;;;;;;5.87;2.27;;;;;;;18.50;53.28;100331.75;4997580;28;20040;-77
2021/09/08 06:29:10;;;;;;;4.07;2.45;;;;;;;19.82;52.89;100324.41;5022105;28;20037;-77
2021/09/08 06:31:38;;;;;;;3.83;1.80;;;;;;;21.15;50.05;100319.88;5025143;28;20127;-76
2021/09/08 06:34:04;;;;;;;7.63;2.00;;;;;;;21.55;48.35;100301.31;5009212;28;20053;-78
2021/09/08 06:36:30;;;;;;;6.50;1.90;;;;;;;21.71;46.74;100320.03;5022544;28;20041;-78
2021/09/08 06:38:56;;;;;;;4.90;2.00;;;;;;;21.67;46.63;100293.69;5022220;28;20052;-79
2021/09/08 06:41:24;;;;;;;7.03;2.20;;;;;;;22.32;45.49;100289.66;5019545;28;20045;-78
2021/09/08 06:43:50;;;;;;;6.63;2.50;;;;;;;23.15;44.23;100308.41;5035416;28;20467;-76
2021/09/08 06:46:17;;;;;;;5.28;2.10;;;;;;;22.44;42.62;100277.59;5021038;28;20055;-76
2021/09/08 06:48:43;;;;;;;3.80;2.25;;;;;;;21.66;42.68;100310.50;5038604;28;20102;-78
2021/09/08 06:51:09;;;;;;;6.30;2.00;;;;;;;23.01;42.91;100298.53;5021185;28;20044;-76
2021/09/08 06:53:35;;;;;;;3.83;1.85;;;;;;;24.48;41.30;100292.22;5019052;28;20186;-77
2021/09/08 06:56:01;;;;;;;2.67;1.75;;;;;;;26.18;39.08;100301.25;5019776;28;20052;-78
2021/09/08 06:58:27;;;;;;;3.20;1.75;;;;;;;27.03;36.58;100275.94;5021836;28;20439;-79
2021/09/08 07:00:58;;;;;;;8.52;2.20;;;;;;;26.68;35.15;100276.59;5004086;28;20063;-78
2021/09/08 07:03:24;;;;;;;6.50;2.13;;;;;;;25.54;35.58;100283.16;5035068;28;20033;-78
2021/09/08 07:05:50;;;;;;;5.88;2.05;;;;;;;24.36;36.54;100304.44;5007075;28;20048;-78
2021/09/08 07:08:18;;;;;;;4.10;1.80;;;;;;;23.25;37.66;100294.69;5025252;28;20033;-78
2021/09/08 07:10:44;;;;;;;3.85;1.70;;;;;;;22.44;38.44;100301.47;5024024;28;20034;-78
2021/09/08 07:13:09;;;;;;;6.03;2.53;;;;;;;21.62;38.95;100314.22;5018804;28;20067;-78
2021/09/08 07:15:35;;;;;;;6.50;1.95;;;;;;;20.97;39.23;100313.59;5023665;28;20033;-80
2021/09/08 07:18:12;;;;;;;5.38;2.05;;;;;;;20.37;39.95;100301.13;5036222;28;21808;-78
2021/09/08 07:20:40;;;;;;;3.75;2.05;;;;;;;20.01;40.92;100319.31;5021217;28;20123;-78
2021/09/08 07:23:42;;;;;;;3.67;1.70;;;;;;;19.51;41.71;100293.06;5007762;28;20044;-78
2021/09/08 07:26:14;;;;;;;6.95;2.13;;;;;;;18.64;42.09;100217.09;5017899;28;20045;-78
2021/09/08 07:28:52;;;;;;;3.85;2.08;;;;;;;18.65;43.04;100250.44;5003555;28;20083;-78
2021/09/08 07:31:39;;;;;;;3.20;1.80;;;;;;;17.83;43.28;100164.53;5004426;28;20091;-78
2021/09/08 07:37:45;;;;;;;4.95;2.00;;;;;;;18.15;44.47;100256.53;5013876;28;20210;-76
2021/09/08 07:40:32;;;;;;;5.35;2.15;;;;;;;18.23;43.97;100307.16;5038110;28;20044;-78
2021/09/08 07:43:02;;;;;;;10.38;2.53;;;;;;;17.01;44.83;100117.13;5028269;28;20055;-78
2021/09/08 07:45:41;;;;;;;3.42;1.90;;;;;;;17.35;45.20;100176.56;5024182;28;20052;-78
2021/09/08 07:48:07;;;;;;;4.93;1.98;;;;;;;18.01;45.44;100318.38;5024113;28;20044;-79
2021/09/08 07:50:33;;;;;;;4.13;1.80;;;;;;;17.86;45.68;100280.25;5027418;28;20069;-78
2021/09/08 07:53:09;;;;;;;3.63;2.40;;;;;;;17.73;45.78;100278.88;5042380;28;20055;-79
2021/09/08 07:55:38;;;;;;;3.33;1.75;;;;;;;17.89;45.77;100313.50;5005633;28;20080;-79
2021/09/08 07:58:05;;;;;;;3.40;2.20;;;;;;;17.88;45.95;100288.06;5007645;28;20041;-79
2021/09/08 08:00:35;;;;;;;3.22;2.10;;;;;;;17.49;46.07;100248.94;5025028;28;20037;-78
2021/09/08 08:03:05;;;;;;;3.55;1.70;;;;;;;16.89;46.06;100151.63;5009833;28;21591;-79
2021/09/08 08:05:32;;;;;;;3.67;1.90;;;;;;;17.11;46.19;100214.97;5006947;28;20082;-78
2021/09/08 08:08:14;;;;;;;4.43;2.20;;;;;;;17.29;46.45;100250.41;5010537;28;20045;-77
2021/09/08 08:10:43;;;;;;;2.90;1.70;;;;;;;17.38;46.43;100286.09;5012698;28;20037;-76
2021/09/08 08:13:32;;;;;;;4.35;1.92;;;;;;;17.36;46.68;100293.16;5026072;28;20041;-79
2021/09/08 08:15:58;;;;;;;3.55;1.70;;;;;;;17.34;47.18;100293.19;5012474;28;20037;-80
2021/09/08 08:18:24;;;;;;;4.03;2.05;;;;;;;17.14;46.82;100263.06;5040346;28;20516;-77
2021/09/08 08:21:12;;;;;;;7.05;2.03;;;;;;;16.53;46.86;100187.66;4999773;28;20057;-78
2021/09/08 08:23:41;;;;;;;5.20;2.10;;;;;;;15.95;47.53;100111.31;5021983;28;20094;-79
2021/09/08 08:26:07;;;;;;;3.72;1.90;;;;;;;16.46;47.50;100227.25;5039424;28;20037;-77
2021/09/08 08:28:36;;;;;;;3.40;2.00;;;;;;;16.79;48.34;100293.81;5006306;28;20585;-77
2021/09/08 08:31:05;;;;;;;9.27;2.53;;;;;;;16.79;48.07;100304.31;5022160;28;20053;-78
2021/09/08 08:33:31;;;;;;;3.40;2.17;;;;;;;16.68;48.58;100293.22;5028220;28;20029;-78
2021/09/08 08:35:57;;;;;;;3.60;2.00;;;;;;;16.76;48.56;100298.28;5041492;28;20064;-78
2021/09/08 08:38:22;;;;;;;6.05;2.05;;;;;;;16.58;48.97;100274.22;5024304;28;20131;-81
2021/09/08 08:40:49;;;;;;;4.15;2.25;;;;;;;16.55;49.27;100280.41;5008215;28;20052;-77
2021/09/08 08:43:26;;;;;;;3.45;2.10;;;;;;;16.49;49.83;100288.44;5009144;28;20045;-77
2021/09/08 08:46:13;;;;;;;4.00;1.88;;;;;;;16.36;50.18;100285.25;5038754;28;20056;-77
2021/09/08 08:48:39;;;;;;;3.20;2.17;;;;;;;15.96;50.63;100228.50;5024224;28;20040;-77
2021/09/08 08:51:38;;;;;;;;;;;;;;;;;;;;;
2021/09/08 08:54:11;;;;;;;7.15;2.35;;;;;;;16.07;50.99;100304.34;5041525;28;20057;-77
2021/09/08 08:56:45;;;;;;;7.50;2.20;;;;;;;16.05;51.18;100300.91;5031032;28;20037;-79
2021/09/08 08:59:10;;;;;;;5.97;2.28;;;;;;;15.09;50.70;100120.34;5032888;28;20048;-78
2021/09/08 09:01:38;;;;;;;5.85;2.45;;;;;;;15.60;50.41;100200.44;5014679;28;20049;-79
2021/09/08 09:04:07;;;;;;;3.80;1.95;;;;;;;15.97;50.22;100222.34;5036117;28;20506;-77
2021/09/08 09:06:41;;;;;;;4.63;1.77;;;;;;;15.78;50.14;100144.06;5045699;28;20563;-78
2021/09/08 09:09:18;;;;;;;7.82;2.00;;;;;;;16.15;49.71;100136.16;5017581;28;20067;-79
2021/09/08 09:11:48;;;;;;;3.85;1.95;;;;;;;16.97;48.72;100204.88;5001516;28;20045;-79
2021/09/08 09:14:20;;;;;;;10.35;2.20;;;;;;;17.07;47.71;100215.97;5047757;28;20097;-79
2021/09/08 09:17:05;;;;;;;5.07;1.80;;;;;;;17.08;47.38;100257.13;5048221;28;20060;-79
2021/09/08 09:19:51;;;;;;;8.13;2.22;;;;;;;15.91;47.51;100136.78;5016247;28;20128;-78
2021/09/08 09:22:18;;;;;;;5.93;2.17;;;;;;;16.70;47.58;100288.78;5052383;28;20521;-78
2021/09/08 09:24:46;;;;;;;3.17;1.90;;;;;;;16.32;47.65;100256.50;5035657;28;20045;-78
2021/09/08 09:27:15;;;;;;;3.90;2.00;;;;;;;16.22;48.09;100277.72;5035522;28;20057;-78
2021/09/08 09:29:47;;;;;;;4.25;2.00;;;;;;;15.86;48.39;100243.59;5040426;28;20048;-78
2021/09/08 09:32:16;;;;;;;5.40;2.00;;;;;;;15.91;48.98;100280.22;5038519;28;20045;-78
2021/09/08 09:34:42;;;;;;;5.05;1.90;;;;;;;15.75;49.04;100277.94;5033472;28;20052;-78
2021/09/08 09:37:11;;;;;;;5.50;2.15;;;;;;;15.63;50.09;100279.06;5027324;28;20481;-79
2021/09/08 09:39:38;;;;;;;8.45;2.15;;;;;;;15.31;50.57;100233.44;5031550;28;20049;-78
2021/09/08 09:42:12;;;;;;;3.30;1.90;;;;;;;15.49;50.53;100278.53;5039053;28;20126;-77
2021/09/08 09:44:45;;;;;;;7.00;2.50;;;;;;;14.56;50.96;100133.66;5024690;28;20049;-76
2021/09/08 09:47:13;;;;;;;5.78;1.92;;;;;;;14.29;51.19;100110.59;5030594;28;20037;-77
2021/09/08 09:49:39;;;;;;;6.80;2.22;;;;;;;14.55;51.05;100160.72;5043559;28;20128;-77
2021/09/08 09:52:06;;;;;;;3.42;2.10;;;;;;;14.85;51.83;100213.44;5004752;28;20162;-78
2021/09/08 09:54:33;;;;;;;3.75;1.90;;;;;;;15.09;52.02;100263.63;5007502;28;20057;-79
2021/09/08 09:56:58;;;;;;;4.38;2.30;;;;;;;14.35;52.22;100148.88;5010057;28;20104;-78
2021/09/08 09:59:53;;;;;;;4.28;2.10;;;;;;;14.59;52.36;100183.34;5042176;28;20040;-79
2021/09/08 10:02:19;;;;;;;5.47;2.20;;;;;;;14.46;52.60;100191.41;4989469;28;20044;-78
2021/09/08 10:04:51;;;;;;;6.22;2.63;;;;;;;14.30;52.73;100150.72;5013273;28;20100;-81
2021/09/08 10:07:19;;;;;;;6.53;2.40;;;;;;;14.93;53.09;100249.97;5049490;28;20041;-79
2021/09/08 10:09:59;;;;;;;6.20;2.53;;;;;;;14.93;53.35;100255.19;5014964;28;20044;-77
2021/09/08 10:12:30;;;;;;;5.00;2.60;;;;;;;14.95;53.73;100242.94;5041891;28;20037;-77
2021/09/08 10:15:01;;;;;;;4.53;2.50;;;;;;;14.70;53.99;100199.72;5022503;28;20052;-78
2021/09/08 10:17:45;;;;;;;7.43;2.38;;;;;;;14.87;54.25;100204.66;5007501;28;20063;-77
2021/09/08 10:20:26;;;;;;;5.05;2.38;;;;;;;14.79;54.02;100184.75;5037306;28;20067;-77
2021/09/08 10:22:54;;;;;;;4.47;2.28;;;;;;;14.71;53.87;100171.81;5035410;28;20086;-79
2021/09/08 10:25:24;;;;;;;3.78;2.00;;;;;;;14.70;54.03;100176.16;5009524;28;20095;-76
2021/09/08 10:27:54;;;;;;;5.57;2.35;;;;;;;15.17;54.12;100238.97;5045853;28;20037;-81
2021/09/08 10:30:42;;;;;;;4.10;2.30;;;;;;;14.63;54.02;100150.97;5027353;28;20037;-79
2021/09/08 10:33:24;;;;;;;8.32;2.00;;;;;;;14.38;54.29;100135.75;5026372;28;20155;-77
2021/09/08 10:35:50;;;;;;;6.32;2.17;;;;;;;14.67;53.92;100176.22;5021142;28;20043;-80
2021/09/08 10:38:34;;;;;;;5.97;2.13;;;;;;;14.99;54.15;100214.00;5020710;28;20429;-77
2021/09/08 10:41:05;;;;;;;8.68;2.38;;;;;;;14.94;54.16;100196.66;5007494;28;20033;-79
2021/09/08 10:43:59;;;;;;;2.53;1.90;;;;;;;14.82;53.78;100166.34;5015740;28;20045;-76
2021/09/08 10:46:50;;;;;;;3.63;1.92;;;;;;;14.84;53.75;100151.47;4984853;28;20037;-77
2021/09/08 10:49:41;;;;;;;4.72;2.28;;;;;;;15.19;53.53;100207.47;5002041;28;20073;-78
2021/09/08 10:52:12;;;;;;;5.22;2.13;;;;;;;15.11;53.42;100191.09;5016652;28;20064;-79
2021/09/08 10:54:56;;;;;;;5.13;2.30;;;;;;;15.17;53.33;100196.16;5004910;28;20146;-78
2021/09/08 10:57:41;;;;;;;5.53;2.10;;;;;;;15.19;53.45;100189.13;5033395;28;20041;-77
2021/09/08 11:00:15;;;;;;;8.40;2.47;;;;;;;15.21;53.31;100189.97;5018364;28;20197;-77
2021/09/08 11:02:44;;;;;;;3.42;1.90;;;;;;;15.18;53.14;100172.56;5033942;28;20090;-78
2021/09/08 11:05:11;;;;;;;5.88;2.83;;;;;;;15.26;53.34;100180.25;5002576;28;20044;-76
2021/09/08 11:07:41;;;;;;;5.13;2.10;;;;;;;15.19;53.20;100174.28;5035601;28;20056;-77
2021/09/08 11:10:16;;;;;;;3.15;2.00;;;;;;;14.98;53.16;100149.41;5018377;28;20044;-80
2021/09/08 11:13:08;;;;;;;5.75;1.90;;;;;;;14.15;53.08;100008.81;5008286;28;20071;-77
2021/09/08 11:15:49;;;;;;;6.50;2.53;;;;;;;14.09;53.15;100008.94;4990955;28;20044;-79
2021/09/08 11:18:14;;;;;;;7.00;2.30;;;;;;;15.01;53.41;100153.69;5022328;28;20478;-78
2021/09/08 11:20:41;;;;;;;5.00;2.22;;;;;;;15.09;53.65;100164.03;5004357;28;20045;-78
2021/09/08 11:23:18;;;;;;;5.05;2.28;;;;;;;15.12;53.53;100162.19;5022935;28;20547;-77
2021/09/08 11:25:45;;;;;;;5.80;2.45;;;;;;;14.98;53.65;100128.44;5022183;28;20087;-78
2021/09/08 11:28:17;;;;;;;4.80;2.38;;;;;;;15.12;53.53;100150.84;5021828;28;20123;-80
2021/09/08 11:30:49;;;;;;;4.18;2.33;;;;;;;14.29;53.57;99994.56;5012166;28;21466;-78
2021/09/08 11:33:21;;;;;;;5.95;2.25;;;;;;;15.11;53.67;100126.41;5040384;28;20045;-78
2021/09/08 11:35:53;;;;;;;7.20;2.45;;;;;;;14.32;53.75;99991.88;5041206;28;20067;-77
2021/09/08 11:38:24;;;;;;;6.40;2.35;;;;;;;14.77;54.09;100064.28;5028810;28;20044;-80
2021/09/08 11:40:52;;;;;;;5.15;2.00;;;;;;;14.78;53.97;100078.22;5044028;28;20055;-78